createdAt,value
2022-08-26T00:00:19.236Z,1000.1
2022-08-26T00:01:24.312Z,1000.2
2022-08-26T00:02:22.735Z,1000.2
2022-08-26T00:03:24.513Z,1000.1
2022-08-26T00:04:26.684Z,1000.1
2022-08-26T00:05:28.728Z,1000.1
2022-08-26T00:06:30.537Z,1000.1
2022-08-26T00:07:32.492Z,1000.1
2022-08-26T00:08:34.492Z,1000.1
2022-08-26T00:09:37.165Z,1000.1
2022-08-26T00:10:38.727Z,1000.1
2022-08-26T00:11:40.412Z,1000
2022-08-26T00:12:41.402Z,1000
2022-08-26T00:13:42.415Z,1000
2022-08-26T00:14:43.471Z,1000
2022-08-26T00:15:44.415Z,1000
2022-08-26T00:16:47.400Z,1000
2022-08-26T00:17:46.412Z,1000
2022-08-26T00:18:47.418Z,1000
2022-08-26T00:19:48.436Z,1000
2022-08-26T00:20:49.442Z,1000
2022-08-26T00:21:50.428Z,1000
2022-08-26T00:22:51.424Z,1000
2022-08-26T00:23:52.656Z,1000
2022-08-26T00:24:54.513Z,1000
2022-08-26T00:25:55.481Z,999.9
2022-08-26T00:26:56.442Z,999.9
2022-08-26T00:27:57.443Z,999.9
2022-08-26T00:28:58.480Z,999.9
2022-08-26T00:29:59.473Z,999.9
2022-08-26T00:31:00.439Z,1000
2022-08-26T00:32:01.510Z,999.9
2022-08-26T00:33:02.445Z,999.9
2022-08-26T00:34:03.460Z,999.9
2022-08-26T00:35:04.520Z,1000
2022-08-26T00:36:05.506Z,999.9
2022-08-26T00:37:09.105Z,1000
2022-08-26T00:38:07.460Z,1000
2022-08-26T00:39:08.459Z,999.9
2022-08-26T00:40:09.506Z,999.9
2022-08-26T00:41:10.510Z,999.9
2022-08-26T00:42:11.453Z,999.9
2022-08-26T00:43:12.495Z,999.9
2022-08-26T00:44:13.466Z,999.9
2022-08-26T00:45:14.476Z,999.9
2022-08-26T00:46:15.573Z,999.9
2022-08-26T00:47:16.488Z,999.9
2022-08-26T00:48:17.479Z,999.9
2022-08-26T00:49:18.480Z,999.9
2022-08-26T00:50:19.529Z,999.9
2022-08-26T00:51:20.516Z,999.9
2022-08-26T00:52:21.486Z,999.9
2022-08-26T00:53:23.939Z,999.9
2022-08-26T00:54:23.529Z,999.9
2022-08-26T00:55:24.519Z,999.9
2022-08-26T00:56:25.484Z,999.8
2022-08-26T00:57:26.519Z,999.9
2022-08-26T00:58:27.487Z,999.8
2022-08-26T00:59:28.488Z,999.8
2022-08-26T01:00:29.593Z,999.9
2022-08-26T01:01:30.720Z,999.9
2022-08-26T01:02:31.597Z,999.9
2022-08-26T01:03:32.540Z,999.8
2022-08-26T01:04:33.504Z,999.8
2022-08-26T01:05:34.644Z,999.8
2022-08-26T01:06:36.547Z,999.8
2022-08-26T01:07:37.502Z,999.8
2022-08-26T01:08:38.507Z,999.8
2022-08-26T01:09:39.524Z,999.8
2022-08-26T01:10:40.548Z,999.7
2022-08-26T01:11:41.925Z,999.8
2022-08-26T01:12:43.509Z,999.8
2022-08-26T01:13:44.518Z,999.8
2022-08-26T01:14:46.384Z,999.8
2022-08-26T01:15:47.601Z,999.8
2022-08-26T01:16:48.837Z,999.8
2022-08-26T01:17:49.514Z,999.8
2022-08-26T01:18:50.523Z,999.8
2022-08-26T01:19:51.539Z,999.8
2022-08-26T01:20:52.525Z,999.8
2022-08-26T01:21:53.595Z,999.8
2022-08-26T01:22:54.530Z,999.8
2022-08-26T01:23:57.213Z,999.8
2022-08-26T01:24:56.536Z,999.8
2022-08-26T01:25:57.541Z,999.8
2022-08-26T01:26:58.607Z,999.8
2022-08-26T01:27:59.550Z,999.8
2022-08-26T01:29:00.557Z,999.8
2022-08-26T01:30:01.589Z,999.8
2022-08-26T01:31:02.536Z,999.8
2022-08-26T01:32:03.599Z,999.8
2022-08-26T01:33:04.588Z,999.8
2022-08-26T01:34:05.594Z,999.8
2022-08-26T01:35:06.560Z,999.8
2022-08-26T01:36:07.557Z,999.8
2022-08-26T01:37:08.596Z,999.8
2022-08-26T01:38:09.558Z,999.8
2022-08-26T01:39:10.598Z,999.8
2022-08-26T01:40:11.666Z,999.8
2022-08-26T01:41:16.213Z,999.8
2022-08-26T01:42:13.563Z,999.8
2022-08-26T01:43:14.553Z,999.8
2022-08-26T01:44:15.586Z,999.8
2022-08-26T01:45:16.657Z,999.8
2022-08-26T01:46:17.622Z,999.8
2022-08-26T01:47:18.567Z,999.8
2022-08-26T01:48:19.580Z,999.8
2022-08-26T01:49:20.607Z,999.7
2022-08-26T01:50:27.595Z,999.7
2022-08-26T01:51:22.658Z,999.8
2022-08-26T01:52:23.625Z,999.8
2022-08-26T01:53:24.591Z,999.7
2022-08-26T01:54:25.598Z,999.7
2022-08-26T01:55:32.519Z,999.7
2022-08-26T01:56:33.212Z,999.7
2022-08-26T01:57:28.599Z,999.7
2022-08-26T01:58:29.592Z,999.7
2022-08-26T01:59:30.595Z,999.7
2022-08-26T02:00:31.633Z,999.8
2022-08-26T02:01:32.602Z,999.7
2022-08-26T02:02:33.640Z,999.8
2022-08-26T02:03:34.641Z,999.8
2022-08-26T02:04:35.665Z,999.8
2022-08-26T02:05:36.640Z,999.8
2022-08-26T02:06:37.606Z,999.8
2022-08-26T02:07:38.702Z,999.8
2022-08-26T02:08:40.658Z,999.7
2022-08-26T02:09:41.710Z,999.7
2022-08-26T02:10:42.759Z,999.7
2022-08-26T02:11:44.615Z,999.7
2022-08-26T02:12:45.672Z,999.7
2022-08-26T02:13:47.675Z,999.7
2022-08-26T02:14:48.622Z,999.7
2022-08-26T02:15:49.613Z,999.7
2022-08-26T02:16:50.611Z,999.7
2022-08-26T02:17:52.622Z,999.7
2022-08-26T02:18:52.875Z,999.7
2022-08-26T02:19:53.624Z,999.7
2022-08-26T02:22:45.101Z,999.7
2022-08-26T02:23:44.719Z,999.7
2022-08-26T02:24:45.648Z,999.7
2022-08-26T02:25:46.686Z,999.7
2022-08-26T02:26:47.641Z,999.7
2022-08-26T02:27:48.648Z,999.7
2022-08-26T02:28:49.701Z,999.7
2022-08-26T02:29:50.640Z,999.7
2022-08-26T02:30:51.659Z,999.8
2022-08-26T02:31:52.708Z,999.8
2022-08-26T02:32:53.672Z,999.8
2022-08-26T02:33:54.694Z,999.8
2022-08-26T02:34:55.701Z,999.7
2022-08-26T02:35:56.697Z,999.7
2022-08-26T02:36:57.671Z,999.7
2022-08-26T02:37:58.666Z,999.7
2022-08-26T02:38:59.931Z,999.7
2022-08-26T02:40:01.775Z,999.7
2022-08-26T02:41:02.696Z,999.7
2022-08-26T02:42:03.708Z,999.7
2022-08-26T02:43:04.677Z,999.7
2022-08-26T02:44:05.663Z,999.7
2022-08-26T02:45:06.725Z,999.7
2022-08-26T02:46:07.730Z,999.7
2022-08-26T02:47:08.749Z,999.7
2022-08-26T02:48:09.701Z,999.7
2022-08-26T02:49:10.707Z,999.7
2022-08-26T02:50:11.687Z,999.7
2022-08-26T02:51:12.683Z,999.7
2022-08-26T02:52:13.709Z,999.7
2022-08-26T02:53:14.683Z,999.7
2022-08-26T02:54:15.721Z,999.7
2022-08-26T02:55:16.717Z,999.7
2022-08-26T02:56:17.756Z,999.7
2022-08-26T02:57:18.706Z,999.7
2022-08-26T02:58:20.043Z,999.7
2022-08-26T02:59:24.326Z,999.7
2022-08-26T03:00:22.751Z,999.7
2022-08-26T03:01:23.857Z,999.7
2022-08-26T03:02:24.741Z,999.7
2022-08-26T03:03:25.727Z,999.6
2022-08-26T03:04:26.721Z,999.6
2022-08-26T03:05:27.706Z,999.6
2022-08-26T03:06:28.768Z,999.6
2022-08-26T03:07:29.725Z,999.7
2022-08-26T03:08:30.725Z,999.6
2022-08-26T03:09:31.717Z,999.6
2022-08-26T03:10:32.713Z,999.6
2022-08-26T03:11:33.759Z,999.6
2022-08-26T03:12:34.765Z,999.6
2022-08-26T03:13:35.722Z,999.6
2022-08-26T03:14:36.763Z,999.6
2022-08-26T03:15:37.729Z,999.6
2022-08-26T03:16:38.717Z,999.6
2022-08-26T03:17:39.820Z,999.6
2022-08-26T03:18:41.732Z,999.6
2022-08-26T03:19:42.743Z,999.6
2022-08-26T03:20:43.940Z,999.6
2022-08-26T03:21:44.768Z,999.6
2022-08-26T03:22:45.774Z,999.6
2022-08-26T03:23:46.741Z,999.6
2022-08-26T03:24:47.732Z,999.6
2022-08-26T03:25:48.748Z,999.6
2022-08-26T03:26:51.923Z,999.5
2022-08-26T03:27:50.769Z,999.5
2022-08-26T03:28:51.736Z,999.5
2022-08-26T03:29:52.753Z,999.5
2022-08-26T03:30:53.985Z,999.5
2022-08-26T03:31:54.760Z,999.5
2022-08-26T03:32:55.798Z,999.5
2022-08-26T03:33:59.254Z,999.5
2022-08-26T03:34:57.785Z,999.5
2022-08-26T03:35:58.754Z,999.5
2022-08-26T03:36:59.764Z,999.5
2022-08-26T03:38:00.761Z,999.5
2022-08-26T03:39:01.800Z,999.5
2022-08-26T03:40:02.878Z,999.5
2022-08-26T03:41:03.772Z,999.5
2022-08-26T03:42:04.814Z,999.4
2022-08-26T03:43:05.765Z,999.4
2022-08-26T03:44:06.839Z,999.4
2022-08-26T03:45:07.851Z,999.4
2022-08-26T03:46:08.844Z,999.4
2022-08-26T03:47:09.784Z,999.4
2022-08-26T03:48:10.788Z,999.4
2022-08-26T03:49:11.779Z,999.4
2022-08-26T03:50:12.806Z,999.4
2022-08-26T03:51:13.852Z,999.4
2022-08-26T03:52:14.783Z,999.4
2022-08-26T03:53:15.789Z,999.4
2022-08-26T03:54:16.802Z,999.4
2022-08-26T03:55:17.790Z,999.5
2022-08-26T03:56:18.818Z,999.4
2022-08-26T03:57:19.796Z,999.5
2022-08-26T03:58:20.791Z,999.5
2022-08-26T03:59:21.796Z,999.5
2022-08-26T04:00:23.741Z,999.4
2022-08-26T04:01:24.837Z,999.4
2022-08-26T04:02:25.864Z,999.4
2022-08-26T04:03:26.871Z,999.4
2022-08-26T04:04:27.807Z,999.4
2022-08-26T04:05:28.843Z,999.4
2022-08-26T04:06:29.802Z,999.5
2022-08-26T04:07:32.004Z,999.5
2022-08-26T04:08:31.810Z,999.5
2022-08-26T04:09:32.809Z,999.5
2022-08-26T04:10:33.845Z,999.5
2022-08-26T04:11:35.048Z,999.5
2022-08-26T04:12:35.866Z,999.5
2022-08-26T04:13:36.864Z,999.5
2022-08-26T04:14:37.862Z,999.5
2022-08-26T04:15:38.860Z,999.5
2022-08-26T04:16:39.910Z,999.5
2022-08-26T04:17:41.816Z,999.5
2022-08-26T04:18:44.480Z,999.5
2022-08-26T04:19:43.846Z,999.5
2022-08-26T04:20:44.860Z,999.5
2022-08-26T04:21:45.938Z,999.5
2022-08-26T04:22:47.857Z,999.5
2022-08-26T04:23:48.840Z,999.4
2022-08-26T04:24:49.833Z,999.4
2022-08-26T04:25:50.858Z,999.4
2022-08-26T04:26:51.917Z,999.4
2022-08-26T04:27:52.849Z,999.4
2022-08-26T04:28:53.854Z,999.4
2022-08-26T04:29:55.376Z,999.5
2022-08-26T04:30:55.922Z,999.5
2022-08-26T04:31:56.878Z,999.5
2022-08-26T04:32:57.855Z,999.4
2022-08-26T04:33:58.849Z,999.5
2022-08-26T04:34:59.862Z,999.5
2022-08-26T04:36:00.902Z,999.5
2022-08-26T04:37:01.952Z,999.5
2022-08-26T04:38:03.871Z,999.5
2022-08-26T04:39:04.865Z,999.5
2022-08-26T04:40:06.266Z,999.5
2022-08-26T04:41:15.134Z,999.5
2022-08-26T04:42:08.902Z,999.5
2022-08-26T04:43:09.899Z,999.5
2022-08-26T04:44:11.140Z,999.5
2022-08-26T04:45:12.901Z,999.5
2022-08-26T04:46:13.935Z,999.5
2022-08-26T04:47:14.909Z,999.5
2022-08-26T04:48:16.871Z,999.5
2022-08-26T04:49:16.917Z,999.5
2022-08-26T04:50:17.886Z,999.5
2022-08-26T04:51:18.894Z,999.5
2022-08-26T04:52:19.888Z,999.5
2022-08-26T04:53:20.907Z,999.4
2022-08-26T04:54:21.890Z,999.4
2022-08-26T04:55:25.394Z,999.4
2022-08-26T04:56:23.896Z,999.5
2022-08-26T04:57:24.907Z,999.5
2022-08-26T04:58:25.925Z,999.5
2022-08-26T04:59:26.898Z,999.5
2022-08-26T05:00:27.888Z,999.5
2022-08-26T05:01:28.982Z,999.5
2022-08-26T05:02:29.970Z,999.5
2022-08-26T05:03:31.939Z,999.5
2022-08-26T05:04:32.934Z,999.5
2022-08-26T05:05:33.914Z,999.5
2022-08-26T05:06:35.551Z,999.5
2022-08-26T05:07:35.911Z,999.4
2022-08-26T05:08:36.914Z,999.4
2022-08-26T05:09:37.962Z,999.4
2022-08-26T05:10:38.967Z,999.4
2022-08-26T05:11:39.954Z,999.4
2022-08-26T05:12:40.926Z,999.4
2022-08-26T05:13:41.922Z,999.5
2022-08-26T05:14:42.971Z,999.5
2022-08-26T05:15:43.996Z,999.4
2022-08-26T05:16:44.959Z,999.4
2022-08-26T05:17:45.955Z,999.4
2022-08-26T05:18:46.936Z,999.5
2022-08-26T05:19:47.970Z,999.5
2022-08-26T05:20:48.930Z,999.5
2022-08-26T05:21:50.164Z,999.5
2022-08-26T05:22:51.937Z,999.5
2022-08-26T05:23:52.935Z,999.5
2022-08-26T05:24:53.962Z,999.5
2022-08-26T05:25:59.072Z,999.5
2022-08-26T05:26:56.503Z,999.5
2022-08-26T05:27:57.945Z,999.5
2022-08-26T05:28:58.950Z,999.5
2022-08-26T05:29:59.954Z,999.6
2022-08-26T05:31:01.015Z,999.5
2022-08-26T05:32:02.019Z,999.5
2022-08-26T05:33:02.951Z,999.5
2022-08-26T05:34:03.982Z,999.5
2022-08-26T05:35:04.965Z,999.5
2022-08-26T05:36:05.977Z,999.5
2022-08-26T05:37:07.099Z,999.5
2022-08-26T05:38:12.359Z,999.5
2022-08-26T05:39:10.480Z,999.5
2022-08-26T05:40:11.070Z,999.5
2022-08-26T05:41:11.967Z,999.5
2022-08-26T05:42:13.040Z,999.5
2022-08-26T05:43:13.972Z,999.4
2022-08-26T05:44:14.970Z,999.4
2022-08-26T05:45:15.976Z,999.4
2022-08-26T05:46:17.044Z,999.3
2022-08-26T05:47:18.022Z,999.2
2022-08-26T05:48:18.982Z,999.1
2022-08-26T05:49:19.981Z,999
2022-08-26T05:50:20.976Z,998.9
2022-08-26T05:51:25.816Z,998.8
2022-08-26T05:52:24.610Z,998.8
2022-08-26T05:53:25.998Z,998.8
2022-08-26T05:54:24.997Z,998.8
2022-08-26T05:55:26.004Z,998.8
2022-08-26T05:56:27.008Z,998.7
2022-08-26T05:57:28.037Z,998.8
2022-08-26T05:58:28.993Z,998.7
2022-08-26T05:59:30.005Z,998.7
2022-08-26T06:00:31.010Z,998.7
2022-08-26T06:01:32.107Z,998.7
2022-08-26T06:02:33.083Z,998.6
2022-08-26T06:03:34.011Z,998.6
2022-08-26T06:04:35.005Z,998.6
2022-08-26T06:05:38.360Z,998.6
2022-08-26T06:06:37.009Z,998.6
2022-08-26T06:07:38.053Z,998.6
2022-08-26T06:08:39.020Z,998.6
2022-08-26T06:09:40.056Z,998.6
2022-08-26T06:10:41.029Z,998.6
2022-08-26T06:11:42.022Z,998.6
2022-08-26T06:12:43.056Z,998.6
2022-08-26T06:13:44.036Z,998.6
2022-08-26T06:14:45.037Z,998.6
2022-08-26T06:15:46.099Z,998.6
2022-08-26T06:16:47.059Z,998.6
2022-08-26T06:17:48.102Z,998.7
2022-08-26T06:18:50.527Z,998.7
2022-08-26T06:19:54.042Z,998.7
2022-08-26T06:20:57.549Z,998.7
2022-08-26T06:21:56.042Z,998.7
2022-08-26T06:22:57.113Z,998.7
2022-08-26T06:23:58.113Z,998.7
2022-08-26T06:25:00.106Z,998.7
2022-08-26T06:26:01.042Z,998.7
2022-08-26T06:27:02.130Z,998.7
2022-08-26T06:28:03.210Z,998.7
2022-08-26T06:29:05.050Z,998.8
2022-08-26T06:30:06.117Z,998.8
2022-08-26T06:31:07.305Z,998.8
2022-08-26T06:32:09.079Z,998.7
2022-08-26T06:33:10.319Z,998.7
2022-08-26T06:34:12.101Z,998.8
2022-08-26T06:35:13.064Z,998.8
2022-08-26T06:36:15.055Z,998.8
2022-08-26T06:37:16.099Z,998.7
2022-08-26T06:38:17.108Z,998.8
2022-08-26T06:39:18.100Z,998.7
2022-08-26T06:40:20.113Z,998.7
2022-08-26T06:41:21.108Z,998.8
2022-08-26T06:42:23.107Z,998.8
2022-08-26T06:43:24.072Z,998.8
2022-08-26T06:44:25.227Z,998.8
2022-08-26T06:45:27.093Z,998.8
2022-08-26T06:46:28.330Z,998.8
2022-08-26T06:47:30.158Z,998.8
2022-08-26T06:48:32.490Z,998.8
2022-08-26T06:49:34.367Z,998.8
2022-08-26T06:50:36.124Z,998.8
2022-08-26T06:51:37.091Z,998.8
2022-08-26T06:52:38.092Z,998.8
2022-08-26T06:53:39.110Z,998.8
2022-08-26T06:54:40.148Z,998.8
2022-08-26T06:55:41.113Z,998.8
2022-08-26T06:56:42.239Z,998.8
2022-08-26T06:57:44.139Z,998.8
2022-08-26T06:58:45.415Z,998.7
2022-08-26T06:59:47.104Z,998.7
2022-08-26T07:00:48.124Z,998.7
2022-08-26T07:01:49.719Z,998.7
2022-08-26T07:02:51.527Z,998.7
2022-08-26T07:03:53.134Z,998.8
2022-08-26T07:04:54.112Z,998.8
2022-08-26T07:05:55.120Z,998.8
2022-08-26T07:06:56.157Z,998.8
2022-08-26T07:07:56.540Z,998.8
2022-08-26T07:08:57.552Z,998.8
2022-08-26T07:09:59.134Z,998.8
2022-08-26T07:10:59.514Z,998.8
2022-08-26T07:12:00.564Z,998.8
2022-08-26T07:13:02.149Z,998.8
2022-08-26T07:14:03.246Z,998.8
2022-08-26T07:15:05.315Z,998.9
2022-08-26T07:16:07.172Z,998.9
2022-08-26T07:17:11.119Z,998.9
2022-08-26T07:18:09.154Z,998.9
2022-08-26T07:19:10.718Z,998.9
2022-08-26T07:20:10.534Z,998.9
2022-08-26T07:21:11.524Z,998.9
2022-08-26T07:22:12.572Z,998.9
2022-08-26T07:23:14.155Z,998.9
2022-08-26T07:24:15.247Z,998.9
2022-08-26T07:25:17.176Z,998.9
2022-08-26T07:26:18.154Z,998.9
2022-08-26T07:27:19.210Z,999
2022-08-26T07:28:20.173Z,998.9
2022-08-26T07:29:21.204Z,999
2022-08-26T07:30:21.709Z,999
2022-08-26T07:31:22.859Z,999
2022-08-26T07:32:23.563Z,999
2022-08-26T07:33:24.558Z,999
2022-08-26T07:34:26.106Z,999
2022-08-26T07:35:26.578Z,999
2022-08-26T07:36:27.550Z,999
2022-08-26T07:37:28.583Z,999
2022-08-26T07:38:30.192Z,999
2022-08-26T07:39:31.409Z,999
2022-08-26T07:40:31.679Z,999
2022-08-26T07:41:32.605Z,999
2022-08-26T07:42:34.221Z,999
2022-08-26T07:43:35.205Z,999
2022-08-26T07:44:36.189Z,999
2022-08-26T07:45:37.228Z,999
2022-08-26T07:46:38.251Z,999
2022-08-26T07:47:39.238Z,999
2022-08-26T07:48:39.583Z,999
2022-08-26T07:49:41.259Z,999
2022-08-26T07:50:49.048Z,999
2022-08-26T07:51:43.245Z,999
2022-08-26T07:52:43.641Z,999
2022-08-26T07:53:45.238Z,999
2022-08-26T07:54:45.653Z,999
2022-08-26T07:55:47.205Z,999
2022-08-26T07:56:48.213Z,999
2022-08-26T07:57:49.438Z,999
2022-08-26T07:58:51.933Z,999
2022-08-26T07:59:52.274Z,999
2022-08-26T08:00:53.220Z,999
2022-08-26T08:01:57.079Z,998.9
2022-08-26T08:03:00.368Z,999
2022-08-26T08:04:02.825Z,999
2022-08-26T08:05:04.733Z,999
2022-08-26T08:06:05.633Z,999
2022-08-26T08:07:07.501Z,999
2022-08-26T08:08:19.766Z,999
2022-08-26T08:09:08.622Z,999
2022-08-26T08:10:11.534Z,999
2022-08-26T08:11:10.626Z,999
2022-08-26T08:12:14.067Z,999
2022-08-26T08:13:12.637Z,999.1
2022-08-26T08:14:13.628Z,999.1
2022-08-26T08:15:14.700Z,999.1
2022-08-26T08:16:15.665Z,999.1
2022-08-26T08:17:16.631Z,999.1
2022-08-26T08:18:17.643Z,999.1
2022-08-26T08:19:18.626Z,999.1
2022-08-26T08:20:19.718Z,999
2022-08-26T08:21:21.502Z,999.1
2022-08-26T08:22:22.730Z,999.1
2022-08-26T08:23:24.663Z,999
2022-08-26T08:24:25.657Z,999
2022-08-26T08:25:26.682Z,999
2022-08-26T08:26:27.673Z,999.1
2022-08-26T08:27:28.667Z,999.1
2022-08-26T08:28:29.652Z,999.1
2022-08-26T08:29:30.665Z,999.1
2022-08-26T08:30:31.802Z,999.1
2022-08-26T08:31:54.717Z,999.1
2022-08-26T08:32:33.661Z,999.1
2022-08-26T08:33:34.658Z,999.1
2022-08-26T08:34:35.682Z,999.1
2022-08-26T08:35:36.695Z,999
2022-08-26T08:36:37.671Z,999.1
2022-08-26T08:37:38.679Z,999
2022-08-26T08:38:39.694Z,999
2022-08-26T08:39:40.678Z,999
2022-08-26T08:40:41.762Z,999
2022-08-26T08:41:42.685Z,999
2022-08-26T08:42:43.759Z,999.1
2022-08-26T08:43:44.683Z,999.1
2022-08-26T08:44:51.821Z,999.1
2022-08-26T08:45:47.178Z,999
2022-08-26T08:46:47.766Z,999
2022-08-26T08:47:48.745Z,999
2022-08-26T08:48:49.699Z,999
2022-08-26T08:49:50.711Z,999
2022-08-26T08:50:51.758Z,999
2022-08-26T08:51:52.699Z,999
2022-08-26T08:52:53.727Z,999
2022-08-26T08:53:55.011Z,999
2022-08-26T08:54:55.714Z,999
2022-08-26T08:55:56.753Z,999
2022-08-26T08:56:57.726Z,999
2022-08-26T08:58:02.318Z,999
2022-08-26T08:58:59.739Z,999
2022-08-26T09:00:00.732Z,999
2022-08-26T09:01:01.817Z,999
2022-08-26T09:02:02.808Z,999
2022-08-26T09:03:03.727Z,999
2022-08-26T09:04:05.878Z,999
2022-08-26T09:05:06.770Z,999
2022-08-26T09:06:07.775Z,999
2022-08-26T09:07:08.747Z,999
2022-08-26T09:08:11.059Z,999
2022-08-26T09:09:10.732Z,999
2022-08-26T09:10:11.747Z,999
2022-08-26T09:11:12.795Z,999
2022-08-26T09:12:13.752Z,999
2022-08-26T09:13:16.930Z,999
2022-08-26T09:14:16.619Z,998.9
2022-08-26T09:15:17.746Z,999
2022-08-26T09:16:19.111Z,998.9
2022-08-26T09:17:19.743Z,998.9
2022-08-26T09:18:20.821Z,999
2022-08-26T09:19:21.830Z,999
2022-08-26T09:20:22.770Z,999
2022-08-26T09:21:23.794Z,999
2022-08-26T09:22:24.797Z,999
2022-08-26T09:23:25.801Z,999
2022-08-26T09:24:28.459Z,999
2022-08-26T09:25:27.830Z,999
2022-08-26T09:26:30.846Z,999
2022-08-26T09:27:29.769Z,999
2022-08-26T09:28:30.818Z,999
2022-08-26T09:29:31.778Z,999
2022-08-26T09:30:32.799Z,999
2022-08-26T09:31:33.799Z,999
2022-08-26T09:32:35.056Z,999
2022-08-26T09:33:35.849Z,999
2022-08-26T09:34:36.813Z,999
2022-08-26T09:35:44.629Z,998.9
2022-08-26T09:36:45.630Z,998.9
2022-08-26T09:38:47.866Z,998.9
2022-08-26T09:39:48.713Z,998.9
2022-08-26T09:40:49.641Z,998.9
2022-08-26T09:41:50.667Z,998.9
2022-08-26T09:42:51.704Z,998.9
2022-08-26T09:43:52.661Z,998.9
2022-08-26T09:44:53.642Z,998.9
2022-08-26T09:45:57.245Z,998.9
2022-08-26T09:46:55.666Z,998.9
2022-08-26T09:47:56.682Z,999
2022-08-26T09:48:57.682Z,999
2022-08-26T09:49:58.656Z,999
2022-08-26T09:50:59.658Z,998.9
2022-08-26T09:52:00.660Z,998.9
2022-08-26T09:53:01.746Z,998.9
2022-08-26T09:54:02.741Z,998.9
2022-08-26T09:55:03.723Z,998.9
2022-08-26T09:56:04.734Z,998.9
2022-08-26T09:57:05.679Z,998.9
2022-08-26T09:58:08.055Z,998.9
2022-08-26T09:59:07.810Z,998.9
2022-08-26T10:00:08.732Z,998.8
2022-08-26T10:01:09.705Z,998.8
2022-08-26T10:02:12.079Z,998.8
2022-08-26T10:03:12.810Z,998.8
2022-08-26T10:04:13.784Z,998.8
2022-08-26T10:05:14.697Z,998.8
2022-08-26T10:06:15.735Z,998.8
2022-08-26T10:07:16.718Z,998.8
2022-08-26T10:08:17.744Z,998.8
2022-08-26T10:09:18.725Z,998.8
2022-08-26T10:10:19.702Z,998.8
2022-08-26T10:11:20.737Z,998.8
2022-08-26T10:12:21.716Z,998.8
2022-08-26T10:13:23.405Z,998.8
2022-08-26T10:14:23.778Z,998.8
2022-08-26T10:15:24.719Z,998.8
2022-08-26T10:16:28.475Z,998.8
2022-08-26T10:17:27.725Z,998.8
2022-08-26T10:18:33.315Z,998.8
2022-08-26T10:19:41.941Z,998.8
2022-08-26T10:20:31.730Z,998.8
2022-08-26T10:21:33.814Z,998.8
2022-08-26T10:22:34.699Z,998.8
2022-08-26T10:23:35.778Z,998.8
2022-08-26T10:24:37.823Z,998.8
2022-08-26T10:25:38.737Z,998.8
2022-08-26T10:26:39.779Z,998.8
2022-08-26T10:27:48.390Z,998.8
2022-08-26T10:28:41.761Z,998.8
2022-08-26T10:29:42.752Z,998.8
2022-08-26T10:30:43.778Z,998.8
2022-08-26T10:31:44.845Z,998.8
2022-08-26T10:32:45.747Z,998.7
2022-08-26T10:33:46.799Z,998.7
2022-08-26T10:34:47.742Z,998.7
2022-08-26T10:35:48.758Z,998.7
2022-08-26T10:37:05.414Z,998.7
2022-08-26T10:37:50.800Z,998.7
2022-08-26T10:38:51.826Z,998.7
2022-08-26T10:39:53.101Z,998.7
2022-08-26T10:40:53.792Z,998.7
2022-08-26T10:41:54.839Z,998.7
2022-08-26T10:42:55.806Z,998.7
2022-08-26T10:43:56.871Z,998.7
2022-08-26T10:44:58.665Z,998.7
2022-08-26T10:45:58.899Z,998.7
2022-08-26T10:46:59.761Z,998.7
2022-08-26T10:48:00.827Z,998.7
2022-08-26T10:49:03.173Z,998.7
2022-08-26T10:50:03.134Z,998.7
2022-08-26T10:51:03.793Z,998.7
2022-08-26T10:52:04.817Z,998.7
2022-08-26T10:53:05.807Z,998.7
2022-08-26T10:54:06.819Z,998.6
2022-08-26T10:55:08.433Z,998.6
2022-08-26T10:56:15.968Z,998.6
2022-08-26T10:57:09.855Z,998.6
2022-08-26T10:58:11.699Z,998.6
2022-08-26T10:59:12.377Z,998.6
2022-08-26T11:00:12.883Z,998.6
2022-08-26T11:01:13.817Z,998.6
2022-08-26T11:02:14.812Z,998.6
2022-08-26T11:03:21.765Z,998.6
2022-08-26T11:04:16.885Z,998.6
2022-08-26T11:05:18.087Z,998.6
2022-08-26T11:06:18.822Z,998.6
2022-08-26T11:07:19.822Z,998.5
2022-08-26T11:08:20.866Z,998.6
2022-08-26T11:09:21.867Z,998.6
2022-08-26T11:10:22.867Z,998.5
2022-08-26T11:11:23.821Z,998.5
2022-08-26T11:12:24.870Z,998.5
2022-08-26T11:13:25.826Z,998.5
2022-08-26T11:14:28.601Z,998.5
2022-08-26T11:15:27.887Z,998.5
2022-08-26T11:16:28.916Z,998.5
2022-08-26T11:17:29.871Z,998.5
2022-08-26T11:18:30.854Z,998.5
2022-08-26T11:19:45.541Z,998.5
2022-08-26T11:20:32.879Z,998.5
2022-08-26T11:21:33.850Z,998.5
2022-08-26T11:22:34.853Z,998.5
2022-08-26T11:23:35.834Z,998.5
2022-08-26T11:24:36.842Z,998.4
2022-08-26T11:25:37.884Z,998.5
2022-08-26T11:26:55.839Z,998.4
2022-08-26T11:27:39.919Z,998.4
2022-08-26T11:28:43.967Z,998.4
2022-08-26T11:29:41.861Z,998.4
2022-08-26T11:30:42.891Z,998.4
2022-08-26T11:31:43.953Z,998.4
2022-08-26T11:32:44.873Z,998.4
2022-08-26T11:33:45.875Z,998.3
2022-08-26T11:34:46.860Z,998.4
2022-08-26T11:35:47.932Z,998.3
2022-08-26T11:36:48.882Z,998.3
2022-08-26T11:37:49.869Z,998.3
2022-08-26T11:38:50.877Z,998.3
2022-08-26T11:39:54.926Z,998.3
2022-08-26T11:40:53.291Z,998.3
2022-08-26T11:41:53.911Z,998.3
2022-08-26T11:42:55.004Z,998.3
2022-08-26T11:43:55.994Z,998.3
2022-08-26T11:44:58.011Z,998.3
2022-08-26T11:45:58.014Z,998.3
2022-08-26T11:46:59.006Z,998.3
2022-08-26T11:47:59.965Z,998.3
2022-08-26T11:49:00.941Z,998.3
2022-08-26T11:50:02.188Z,998.3
2022-08-26T11:51:02.932Z,998.3
2022-08-26T11:52:03.973Z,998.3
2022-08-26T11:53:06.223Z,998.3
2022-08-26T11:54:05.984Z,998.2
2022-08-26T11:55:06.934Z,998.2
2022-08-26T11:56:07.907Z,998.2
2022-08-26T11:57:09.561Z,998.2
2022-08-26T11:58:10.137Z,998.3
2022-08-26T11:59:10.937Z,998.2
2022-08-26T12:00:13.662Z,998.2
2022-08-26T12:01:12.910Z,998.2
2022-08-26T12:02:13.925Z,998.1
2022-08-26T12:03:14.957Z,998.2
2022-08-26T12:04:16.042Z,998.1
2022-08-26T12:05:16.946Z,998.1
2022-08-26T12:06:18.010Z,998.1
2022-08-26T12:07:23.946Z,998.2
2022-08-26T12:08:19.977Z,998.1
2022-08-26T12:09:20.999Z,998.1
2022-08-26T12:10:21.955Z,998.1
2022-08-26T12:11:22.930Z,998.1
2022-08-26T12:12:23.942Z,998.1
2022-08-26T12:13:25.044Z,998.1
2022-08-26T12:14:25.981Z,998.1
2022-08-26T12:15:26.960Z,998
2022-08-26T12:16:27.990Z,998
2022-08-26T12:17:29.099Z,998
2022-08-26T12:18:30.137Z,998
2022-08-26T12:19:32.810Z,998
2022-08-26T12:20:34.116Z,998
2022-08-26T12:21:35.159Z,998
2022-08-26T12:22:36.988Z,998
2022-08-26T12:23:39.044Z,997.9
2022-08-26T12:24:40.589Z,997.9
2022-08-26T12:25:41.967Z,997.9
2022-08-26T12:26:43.467Z,997.9
2022-08-26T12:27:44.066Z,997.9
2022-08-26T12:28:44.983Z,997.9
2022-08-26T12:29:48.335Z,997.9
2022-08-26T12:30:47.035Z,997.9
2022-08-26T12:31:48.206Z,997.8
2022-08-26T12:32:51.117Z,997.9
2022-08-26T12:33:51.044Z,997.9
2022-08-26T12:34:52.124Z,997.8
2022-08-26T12:35:56.458Z,997.9
2022-08-26T12:36:55.121Z,997.8
2022-08-26T12:37:56.157Z,997.8
2022-08-26T12:38:58.372Z,997.8
2022-08-26T12:39:58.088Z,997.8
2022-08-26T12:40:59.339Z,997.8
2022-08-26T12:42:00.076Z,997.8
2022-08-26T12:43:01.102Z,997.8
2022-08-26T12:44:02.921Z,997.8
2022-08-26T12:45:04.140Z,997.8
2022-08-26T12:46:06.721Z,997.8
2022-08-26T12:47:07.991Z,997.8
2022-08-26T12:48:10.818Z,997.8
2022-08-26T12:49:16.190Z,997.8
2022-08-26T12:50:17.833Z,997.7
2022-08-26T12:51:19.091Z,997.7
2022-08-26T12:52:21.532Z,997.7
2022-08-26T12:53:24.203Z,997.7
2022-08-26T12:54:26.975Z,997.7
2022-08-26T12:55:30.368Z,997.7
2022-08-26T12:56:32.093Z,997.7
2022-08-26T12:57:33.100Z,997.7
2022-08-26T12:58:35.296Z,997.6
2022-08-26T12:59:36.113Z,997.6
2022-08-26T13:00:37.150Z,997.6
2022-08-26T13:01:39.008Z,997.6
2022-08-26T13:02:40.117Z,997.6
2022-08-26T13:03:41.837Z,997.6
2022-08-26T13:04:43.784Z,997.6
2022-08-26T13:05:45.532Z,997.6
2022-08-26T13:06:47.399Z,997.6
2022-08-26T13:07:48.141Z,997.5
2022-08-26T13:08:49.299Z,997.5
2022-08-26T13:09:50.138Z,997.5
2022-08-26T13:10:52.135Z,997.5
2022-08-26T13:11:53.623Z,997.5
2022-08-26T13:12:54.133Z,997.5
2022-08-26T13:13:56.157Z,997.4
2022-08-26T13:14:57.164Z,997.4
2022-08-26T13:15:58.215Z,997.4
2022-08-26T13:17:00.202Z,997.4
2022-08-26T13:18:01.341Z,997.4